createdAt,value
2018-08-08T00:02:29.589Z,29.30
2018-08-08T00:05:04.884Z,29.30
2018-08-08T00:07:39.957Z,29.30
2018-08-08T00:10:15.637Z,29.30
2018-08-08T00:12:50.642Z,29.30
2018-08-08T00:15:25.660Z,29.30
2018-08-08T00:18:00.840Z,29.30
2018-08-08T00:20:36.002Z,29.30
2018-08-08T00:25:46.496Z,29.30
2018-08-08T00:28:21.627Z,29.30
2018-08-08T00:30:57.108Z,29.30
2018-08-08T00:33:32.276Z,29.20
2018-08-08T00:36:07.529Z,29.20
2018-08-08T00:38:42.673Z,29.20
2018-08-08T00:41:17.671Z,29.20
2018-08-08T00:43:52.805Z,29.20
2018-08-08T00:46:27.980Z,29.20
2018-08-08T00:49:03.124Z,29.20
2018-08-08T00:51:38.081Z,29.20
2018-08-08T00:54:13.316Z,29.20
2018-08-08T00:56:48.354Z,29.20
2018-08-08T00:59:23.504Z,29.20
2018-08-08T01:01:58.551Z,29.10
2018-08-08T01:04:33.637Z,29.10
2018-08-08T01:07:08.746Z,29.10
2018-08-08T01:09:44.020Z,29.10
2018-08-08T01:12:19.128Z,29.10
2018-08-08T01:14:54.253Z,29.10
2018-08-08T01:17:29.328Z,29.10
2018-08-08T01:20:05.676Z,29.10
2018-08-08T01:22:40.941Z,29.10
2018-08-08T01:25:16.908Z,29.10
2018-08-08T01:27:52.029Z,29.10
2018-08-08T01:30:27.245Z,29.00
2018-08-08T01:33:02.478Z,29.00
2018-08-08T01:35:37.473Z,29.00
2018-08-08T01:38:12.508Z,29.00
2018-08-08T01:40:47.613Z,29.00
2018-08-08T01:43:22.699Z,29.00
2018-08-08T01:45:57.911Z,29.00
2018-08-08T01:48:32.820Z,29.00
2018-08-08T01:51:08.431Z,29.00
2018-08-08T01:54:21.312Z,28.90
2018-08-08T01:56:55.693Z,29.00
2018-08-08T01:59:30.197Z,29.00
2018-08-08T02:02:04.624Z,29.00
2018-08-08T02:04:38.971Z,29.00
2018-08-08T02:07:13.384Z,29.00
2018-08-08T02:09:47.771Z,29.00
2018-08-08T02:12:22.098Z,29.00
2018-08-08T02:14:56.521Z,29.00
2018-08-08T02:17:30.848Z,29.00
2018-08-08T02:20:05.283Z,28.90
2018-08-08T02:22:40.539Z,28.90
2018-08-08T02:25:16.090Z,28.70
2018-08-08T02:27:51.483Z,28.80
2018-08-08T02:30:25.756Z,28.80
2018-08-08T02:33:00.111Z,28.80
2018-08-08T02:35:34.622Z,28.80
2018-08-08T02:38:09.017Z,28.80
2018-08-08T02:40:43.792Z,28.70
2018-08-08T02:43:18.039Z,28.70
2018-08-08T02:45:52.324Z,28.70
2018-08-08T02:48:26.624Z,28.80
2018-08-08T02:51:00.889Z,28.80
2018-08-08T02:53:35.270Z,28.70
2018-08-08T02:56:09.653Z,28.70
2018-08-08T02:58:43.953Z,28.70
2018-08-08T03:01:18.186Z,28.70
2018-08-08T03:03:52.549Z,28.80
2018-08-08T03:06:26.944Z,28.70
2018-08-08T03:09:01.196Z,28.70
2018-08-08T03:11:35.529Z,28.70
2018-08-08T03:14:09.914Z,28.70
2018-08-08T03:16:44.284Z,28.70
2018-08-08T03:19:18.702Z,28.70
2018-08-08T03:21:53.089Z,28.70
2018-08-08T03:24:27.328Z,28.70
2018-08-08T03:27:01.588Z,28.70
2018-08-08T03:29:35.965Z,28.70
2018-08-08T03:32:10.233Z,28.70
2018-08-08T03:34:45.351Z,28.70
2018-08-08T03:37:19.739Z,28.70
2018-08-08T03:39:54.152Z,28.40
2018-08-08T03:42:28.569Z,28.50
2018-08-08T03:45:02.791Z,28.30
2018-08-08T03:47:37.553Z,27.70
2018-08-08T03:50:12.493Z,27.40
2018-08-08T03:52:46.757Z,27.00
2018-08-08T03:55:21.087Z,27.60
2018-08-08T03:57:55.400Z,27.80
2018-08-08T04:00:29.829Z,27.70
2018-08-08T04:03:04.029Z,27.80
2018-08-08T04:05:38.529Z,27.80
2018-08-08T04:08:12.903Z,27.50
2018-08-08T04:10:47.165Z,26.80
2018-08-08T04:13:23.099Z,26.50
2018-08-08T04:15:57.460Z,26.80
2018-08-08T04:21:31.137Z,26.40
2018-08-08T04:24:05.432Z,27.00
2018-08-08T04:26:39.819Z,27.00
2018-08-08T04:29:14.121Z,26.90
2018-08-08T04:31:48.343Z,27.00
2018-08-08T04:34:22.540Z,26.80
2018-08-08T04:36:56.881Z,27.00
2018-08-08T04:39:31.187Z,26.80
2018-08-08T04:42:05.881Z,26.90
2018-08-08T04:44:40.280Z,26.70
2018-08-08T04:47:14.703Z,26.20
2018-08-08T04:49:49.109Z,26.30
2018-08-08T04:52:23.497Z,26.80
2018-08-08T04:54:57.927Z,27.10
2018-08-08T04:57:32.330Z,27.20
2018-08-08T05:00:08.152Z,27.00
2018-08-08T05:02:42.589Z,26.90
2018-08-08T05:05:16.990Z,26.90
2018-08-08T05:07:51.294Z,27.20
2018-08-08T05:10:25.624Z,27.50
2018-08-08T05:13:00.005Z,27.60
2018-08-08T05:15:34.317Z,27.80
2018-08-08T05:18:08.790Z,27.90
2018-08-08T05:20:43.024Z,27.70
2018-08-08T05:23:17.322Z,27.60
2018-08-08T05:25:51.707Z,27.60
2018-08-08T05:28:25.996Z,27.50
2018-08-08T05:31:00.433Z,27.50
2018-08-08T05:33:34.852Z,27.40
2018-08-08T05:36:09.272Z,27.40
2018-08-08T05:38:43.594Z,27.20
2018-08-08T05:41:17.872Z,27.20
2018-08-08T05:43:52.273Z,27.20
2018-08-08T05:46:26.596Z,27.20
2018-08-08T05:49:00.864Z,26.90
2018-08-08T05:51:35.116Z,26.80
2018-08-08T05:54:09.392Z,26.90
2018-08-08T05:56:43.828Z,26.90
2018-08-08T05:59:18.098Z,27.00
2018-08-08T06:01:53.558Z,27.10
2018-08-08T06:04:27.897Z,27.20
2018-08-08T06:07:02.076Z,27.10
2018-08-08T06:09:36.368Z,27.00
2018-08-08T06:12:10.884Z,26.90
2018-08-08T06:14:45.148Z,26.80
2018-08-08T06:17:19.482Z,26.30
2018-08-08T06:19:53.845Z,25.80
2018-08-08T06:22:29.299Z,25.30
2018-08-08T06:25:05.475Z,25.40
2018-08-08T06:27:40.900Z,25.40
2018-08-08T06:30:20.245Z,25.50
2018-08-08T06:32:55.715Z,25.60
2018-08-08T06:35:30.256Z,25.40
2018-08-08T06:38:04.914Z,25.50
2018-08-08T06:40:39.196Z,25.80
2018-08-08T06:43:13.493Z,25.90
2018-08-08T06:45:47.836Z,26.20
2018-08-08T06:48:22.306Z,25.80
2018-08-08T06:50:56.901Z,25.60
2018-08-08T06:53:31.270Z,25.70
2018-08-08T06:56:05.766Z,25.60
2018-08-08T06:58:40.013Z,25.80
2018-08-08T07:01:14.671Z,25.80
2018-08-08T07:03:49.155Z,25.70
2018-08-08T07:06:23.477Z,25.90
2018-08-08T07:08:57.885Z,25.40
2018-08-08T07:11:32.264Z,24.90
2018-08-08T07:14:06.747Z,24.30
2018-08-08T07:16:41.068Z,24.20
2018-08-08T07:19:15.397Z,24.10
2018-08-08T07:21:49.769Z,24.20
2018-08-08T07:24:23.992Z,24.00
2018-08-08T07:26:58.520Z,24.00
2018-08-08T07:29:33.109Z,24.20
2018-08-08T07:32:07.527Z,24.40
2018-08-08T07:34:41.842Z,24.90
2018-08-08T07:37:16.091Z,24.80
2018-08-08T07:39:50.440Z,24.30
2018-08-08T07:42:24.901Z,24.10
2018-08-08T07:44:59.361Z,23.60
2018-08-08T07:47:33.791Z,23.70
2018-08-08T07:50:09.421Z,23.80
2018-08-08T07:52:44.464Z,23.80
2018-08-08T07:55:19.762Z,23.70
2018-08-08T07:57:54.076Z,23.90
2018-08-08T08:00:29.684Z,23.90
2018-08-08T08:03:04.054Z,23.90
2018-08-08T08:05:38.362Z,23.90
2018-08-08T08:08:12.761Z,23.90
2018-08-08T08:10:47.149Z,24.50
2018-08-08T08:13:21.388Z,24.60
2018-08-08T08:15:55.812Z,24.50
2018-08-08T08:18:30.255Z,25.40
2018-08-08T08:21:04.508Z,25.90
2018-08-08T08:23:38.810Z,25.60
2018-08-08T08:26:13.080Z,25.40
2018-08-08T08:28:47.492Z,25.80
2018-08-08T08:31:21.948Z,25.60
2018-08-08T08:33:56.265Z,25.80
2018-08-08T08:36:30.483Z,26.20
2018-08-08T08:39:07.368Z,26.10
2018-08-08T08:41:41.650Z,26.20
2018-08-08T08:44:15.950Z,26.30
2018-08-08T08:46:50.296Z,26.70
2018-08-08T08:49:24.576Z,25.90
2018-08-08T08:51:58.876Z,26.40
2018-08-08T08:54:33.212Z,26.40
2018-08-08T08:57:07.388Z,26.30
2018-08-08T08:59:41.732Z,26.80
2018-08-08T09:02:16.036Z,26.80
2018-08-08T09:04:50.348Z,27.10
2018-08-08T09:07:24.591Z,26.90
2018-08-08T09:09:59.003Z,27.30
2018-08-08T09:12:33.226Z,27.10
2018-08-08T09:15:09.205Z,27.20
2018-08-08T09:17:43.603Z,27.30
2018-08-08T09:20:18.017Z,27.20
2018-08-08T09:22:52.301Z,27.50
2018-08-08T09:25:26.515Z,27.30
2018-08-08T09:28:00.894Z,27.40
2018-08-08T09:30:35.709Z,27.50
2018-08-08T09:33:15.560Z,27.50
2018-08-08T09:35:50.536Z,27.70
2018-08-08T09:38:24.748Z,27.80
2018-08-08T09:40:58.931Z,27.90
2018-08-08T09:43:33.175Z,27.90
2018-08-08T09:46:07.500Z,27.40
2018-08-08T09:48:41.799Z,27.80
2018-08-08T09:51:16.097Z,27.50
2018-08-08T09:53:50.443Z,27.50
2018-08-08T09:56:24.753Z,27.60
2018-08-08T09:58:59.040Z,27.60
2018-08-08T10:01:38.812Z,27.70
2018-08-08T10:04:34.911Z,27.60
2018-08-08T10:07:09.284Z,27.40
2018-08-08T10:09:43.555Z,27.60
2018-08-08T10:12:17.909Z,27.80
2018-08-08T10:14:52.211Z,27.60
2018-08-08T10:17:26.506Z,27.40
2018-08-08T10:20:00.887Z,27.40
2018-08-08T10:22:35.341Z,27.40
2018-08-08T10:25:09.572Z,27.40
2018-08-08T10:27:43.957Z,27.20
2018-08-08T10:30:18.167Z,27.40
2018-08-08T10:32:52.439Z,27.60
2018-08-08T10:35:26.700Z,27.50
2018-08-08T10:38:01.097Z,27.00
2018-08-08T10:40:35.480Z,26.80
2018-08-08T10:43:09.711Z,26.90
2018-08-08T10:45:44.104Z,27.10
2018-08-08T10:48:18.437Z,27.00
2018-08-08T10:50:52.860Z,26.80
2018-08-08T10:53:27.089Z,27.10
2018-08-08T10:56:01.460Z,27.20
2018-08-08T10:58:35.736Z,27.60
2018-08-08T11:01:10.052Z,27.70
2018-08-08T11:03:44.320Z,27.80
2018-08-08T11:06:18.684Z,27.80
2018-08-08T11:08:52.993Z,27.90
2018-08-08T11:11:27.352Z,27.80
2018-08-08T11:14:01.659Z,27.70
2018-08-08T11:16:35.992Z,27.80
2018-08-08T11:19:10.217Z,27.90
2018-08-08T11:21:44.543Z,28.10
2018-08-08T11:24:18.841Z,28.20
2018-08-08T11:26:53.076Z,28.20
2018-08-08T11:29:27.281Z,28.00
2018-08-08T11:32:01.650Z,27.80
2018-08-08T11:34:35.924Z,27.70
2018-08-08T11:37:10.317Z,27.40
2018-08-08T11:39:44.616Z,26.90
2018-08-08T11:42:18.884Z,26.70
2018-08-08T11:44:53.197Z,26.90
2018-08-08T11:47:27.452Z,26.60
2018-08-08T11:50:01.776Z,26.80
2018-08-08T11:52:36.057Z,26.30
2018-08-08T11:55:10.384Z,26.20
2018-08-08T11:57:44.832Z,26.30
2018-08-08T12:00:19.031Z,26.50
2018-08-08T12:02:53.460Z,26.60
2018-08-08T12:05:27.880Z,26.60
2018-08-08T12:08:02.615Z,27.00
2018-08-08T12:10:36.977Z,26.80
2018-08-08T12:13:11.223Z,26.60
2018-08-08T12:15:45.506Z,26.70
2018-08-08T12:18:19.756Z,26.80
2018-08-08T12:20:54.107Z,25.50
2018-08-08T12:23:28.432Z,25.60
2018-08-08T12:26:02.798Z,25.80
2018-08-08T12:28:37.003Z,26.00
2018-08-08T12:31:11.279Z,25.80
2018-08-08T12:33:45.535Z,26.00
2018-08-08T12:36:19.749Z,26.40
2018-08-08T12:38:53.936Z,26.90
2018-08-08T12:41:28.288Z,27.00
2018-08-08T12:44:02.444Z,27.00
2018-08-08T12:46:36.748Z,27.10
2018-08-08T12:49:11.045Z,27.20
2018-08-08T12:51:45.420Z,27.50
2018-08-08T12:54:19.628Z,27.70
2018-08-08T12:56:53.932Z,27.90
2018-08-08T12:59:28.175Z,28.00
2018-08-08T13:02:02.466Z,28.00
2018-08-08T13:04:36.635Z,28.00
2018-08-08T13:07:10.954Z,28.10
2018-08-08T13:09:45.226Z,28.10
2018-08-08T13:12:19.438Z,28.10
2018-08-08T13:14:53.808Z,28.30
2018-08-08T13:17:28.136Z,28.30
2018-08-08T13:20:02.372Z,28.30
2018-08-08T13:22:36.596Z,28.10
2018-08-08T13:25:10.991Z,28.10
2018-08-08T13:27:45.241Z,28.30
2018-08-08T13:30:19.636Z,28.40
2018-08-08T13:32:54.020Z,28.30
2018-08-08T13:35:28.356Z,28.30
2018-08-08T13:38:02.636Z,28.30
2018-08-08T13:40:37.142Z,28.10
2018-08-08T13:43:11.416Z,28.20
2018-08-08T13:45:45.754Z,28.10
2018-08-08T13:48:20.092Z,28.10
2018-08-08T13:50:54.277Z,28.00
2018-08-08T13:53:28.708Z,28.10
2018-08-08T13:56:03.197Z,28.10
2018-08-08T13:58:37.412Z,28.10
2018-08-08T14:01:11.716Z,28.20
2018-08-08T14:03:45.986Z,28.00
2018-08-08T14:06:20.374Z,28.10
2018-08-08T14:08:55.795Z,28.00
2018-08-08T14:11:30.080Z,28.10
2018-08-08T14:14:04.519Z,28.10
2018-08-08T14:16:38.908Z,28.10
2018-08-08T14:19:13.176Z,28.00
2018-08-08T14:21:47.368Z,28.00
2018-08-08T14:24:21.720Z,28.00
2018-08-08T14:26:56.151Z,28.00
2018-08-08T14:29:30.440Z,28.00
2018-08-08T14:32:04.634Z,28.10
2018-08-08T14:34:39.005Z,27.80
2018-08-08T14:37:13.175Z,27.70
2018-08-08T14:39:47.503Z,27.60
2018-08-08T14:42:21.731Z,27.80
2018-08-08T14:44:56.127Z,27.90
2018-08-08T14:47:30.488Z,28.00
2018-08-08T14:50:05.775Z,27.90
2018-08-08T14:52:40.176Z,28.00
2018-08-08T14:55:14.540Z,27.90
2018-08-08T14:57:48.878Z,27.80
2018-08-08T15:00:23.164Z,27.90
2018-08-08T15:02:57.418Z,27.70
2018-08-08T15:05:31.711Z,27.80
2018-08-08T15:08:05.999Z,27.70
2018-08-08T15:10:40.278Z,27.60
2018-08-08T15:13:14.512Z,27.30
2018-08-08T15:15:48.792Z,27.40
2018-08-08T15:18:23.095Z,27.60
2018-08-08T15:20:57.448Z,27.70
2018-08-08T15:23:31.668Z,27.60
2018-08-08T15:26:06.050Z,27.40
2018-08-08T15:28:40.483Z,27.20
2018-08-08T15:31:14.919Z,27.30
2018-08-08T15:33:49.195Z,27.20
2018-08-08T15:36:23.594Z,27.20
2018-08-08T15:38:57.812Z,27.10
2018-08-08T15:41:32.080Z,27.30
2018-08-08T15:44:06.445Z,27.60
2018-08-08T15:46:40.795Z,27.70
2018-08-08T15:49:15.192Z,27.70
2018-08-08T15:51:49.402Z,27.50
2018-08-08T15:54:23.744Z,27.50
2018-08-08T15:56:58.047Z,27.60
2018-08-08T15:59:32.259Z,27.60
2018-08-08T16:02:07.076Z,27.70
2018-08-08T16:04:41.484Z,27.50
2018-08-08T16:07:15.691Z,27.60
2018-08-08T16:09:50.040Z,27.70
2018-08-08T16:12:24.310Z,27.60
2018-08-08T16:14:58.592Z,27.20
2018-08-08T16:17:32.840Z,27.10
2018-08-08T16:20:07.199Z,27.30
2018-08-08T16:22:41.392Z,27.60
2018-08-08T16:25:15.607Z,27.70
2018-08-08T16:27:49.815Z,27.80
2018-08-08T16:30:24.085Z,27.50
2018-08-08T16:32:58.300Z,27.60
2018-08-08T16:35:32.573Z,27.70
2018-08-08T16:38:07.159Z,27.70
2018-08-08T16:40:41.506Z,27.90
2018-08-08T16:43:15.684Z,27.80
2018-08-08T16:45:50.028Z,27.90
2018-08-08T16:48:24.308Z,27.80
2018-08-08T16:50:58.545Z,27.70
2018-08-08T16:53:32.708Z,27.70
2018-08-08T16:56:07.108Z,27.80
2018-08-08T16:58:41.471Z,27.50
2018-08-08T17:01:15.623Z,27.50
2018-08-08T17:03:50.280Z,27.40
2018-08-08T17:06:24.551Z,27.30
2018-08-08T17:08:58.887Z,27.40
2018-08-08T17:11:33.073Z,27.40
2018-08-08T17:14:07.453Z,27.40
2018-08-08T17:16:41.822Z,27.10
2018-08-08T17:19:16.144Z,27.00
2018-08-08T17:21:50.419Z,27.20
2018-08-08T17:24:24.680Z,27.20
2018-08-08T17:26:58.882Z,27.20
2018-08-08T17:29:33.105Z,27.30
2018-08-08T17:32:07.856Z,26.70
2018-08-08T17:34:42.119Z,26.60
2018-08-08T17:37:16.491Z,26.70
2018-08-08T17:39:50.699Z,26.80
2018-08-08T17:42:25.040Z,26.70
2018-08-08T17:44:59.288Z,26.70
2018-08-08T17:47:33.649Z,26.70
2018-08-08T17:50:08.369Z,26.60
2018-08-08T17:52:42.576Z,26.90
2018-08-08T17:55:16.809Z,27.10
2018-08-08T17:57:51.016Z,26.70
2018-08-08T18:00:25.480Z,26.70
2018-08-08T18:02:59.755Z,26.80
2018-08-08T18:05:34.174Z,26.70
2018-08-08T18:08:13.944Z,26.80
2018-08-08T18:10:49.416Z,26.60
2018-08-08T18:13:23.775Z,26.50
2018-08-08T18:15:58.097Z,26.30
2018-08-08T18:18:32.924Z,26.40
2018-08-08T18:21:07.157Z,26.20
2018-08-08T18:23:41.455Z,26.20
2018-08-08T18:26:15.811Z,26.20
2018-08-08T18:28:50.012Z,26.20
2018-08-08T18:31:24.330Z,26.20
2018-08-08T18:33:58.656Z,26.20
2018-08-08T18:36:32.925Z,26.00
2018-08-08T18:39:08.623Z,25.90
2018-08-08T18:41:42.899Z,25.90
2018-08-08T18:44:17.133Z,26.00
2018-08-08T18:46:51.459Z,25.80
2018-08-08T18:49:25.687Z,25.80
2018-08-08T18:52:00.010Z,25.80
2018-08-08T18:54:34.740Z,25.80
2018-08-08T18:57:09.015Z,25.60
2018-08-08T18:59:43.281Z,25.40
2018-08-08T19:02:17.634Z,25.40
2018-08-08T19:04:51.908Z,25.40
2018-08-08T19:07:26.216Z,25.20
2018-08-08T19:10:00.470Z,25.30
2018-08-08T19:12:35.424Z,25.10
2018-08-08T19:15:09.621Z,25.80
2018-08-08T19:17:43.868Z,25.80
2018-08-08T19:20:18.211Z,26.00
2018-08-08T19:22:52.640Z,26.00
2018-08-08T19:25:26.844Z,25.70
2018-08-08T19:28:01.178Z,25.80
2018-08-08T19:30:35.481Z,25.60
2018-08-08T19:33:09.820Z,25.60
2018-08-08T19:35:44.273Z,26.10
2018-08-08T19:38:18.692Z,26.50
2018-08-08T19:40:52.928Z,26.70
2018-08-08T19:43:27.321Z,26.90
2018-08-08T19:46:01.568Z,27.10
2018-08-08T19:48:35.828Z,27.20
2018-08-08T19:51:10.104Z,27.30
2018-08-08T19:53:44.300Z,27.30
2018-08-08T19:56:18.673Z,27.40
2018-08-08T19:58:52.835Z,26.40
2018-08-08T20:01:27.211Z,25.90
2018-08-08T20:04:01.528Z,25.50
2018-08-08T20:06:35.872Z,25.00
2018-08-08T20:09:11.627Z,24.70
2018-08-08T20:11:45.953Z,24.40
2018-08-08T20:14:20.166Z,24.30
2018-08-08T20:16:54.471Z,24.10
2018-08-08T20:19:28.811Z,24.10
2018-08-08T20:22:03.032Z,24.00
2018-08-08T20:24:37.346Z,24.00
2018-08-08T20:27:11.963Z,23.80
2018-08-08T20:29:46.255Z,23.80
2018-08-08T20:32:20.628Z,23.90
2018-08-08T20:34:54.997Z,23.80
2018-08-08T20:37:29.331Z,23.70
2018-08-08T20:40:03.715Z,23.80
2018-08-08T20:42:37.924Z,23.70
2018-08-08T20:45:12.260Z,23.80
2018-08-08T20:47:46.740Z,23.70
2018-08-08T20:50:21.435Z,23.70
2018-08-08T20:52:55.684Z,23.60
2018-08-08T20:55:29.969Z,23.60
2018-08-08T20:58:04.231Z,23.50
2018-08-08T21:00:38.399Z,23.50
2018-08-08T21:03:12.723Z,23.50
2018-08-08T21:05:47.089Z,23.50
2018-08-08T21:08:21.419Z,23.50
2018-08-08T21:10:55.756Z,23.50
2018-08-08T21:13:30.093Z,23.50
2018-08-08T21:16:04.505Z,23.60
2018-08-08T21:18:38.835Z,23.60
2018-08-08T21:21:13.176Z,23.30
2018-08-08T21:23:47.554Z,23.10
2018-08-08T21:26:21.839Z,23.20
2018-08-08T21:28:56.268Z,23.10
2018-08-08T21:31:30.514Z,23.10
2018-08-08T21:34:04.824Z,23.20
2018-08-08T21:36:39.132Z,23.10
2018-08-08T21:39:13.424Z,22.90
2018-08-08T21:41:47.892Z,22.90
2018-08-08T21:44:22.383Z,23.00
2018-08-08T21:46:56.672Z,22.90
2018-08-08T21:49:31.023Z,23.10
2018-08-08T21:52:05.697Z,22.90
2018-08-08T21:54:51.155Z,23.00
2018-08-08T21:57:36.932Z,23.30
2018-08-08T22:00:22.507Z,23.20
2018-08-08T22:03:08.136Z,23.10
2018-08-08T22:06:53.018Z,22.90
2018-08-08T22:09:38.656Z,22.90
2018-08-08T22:12:24.404Z,23.20
2018-08-08T22:15:10.245Z,23.40
2018-08-08T22:17:55.979Z,23.30
2018-08-08T22:20:30.258Z,23.10
2018-08-08T22:23:04.480Z,23.00
2018-08-08T22:25:39.072Z,22.90
2018-08-08T22:28:13.309Z,22.90
2018-08-08T22:30:47.654Z,22.60
2018-08-08T22:33:22.016Z,22.50
2018-08-08T22:35:56.264Z,22.10
2018-08-08T22:38:30.438Z,22.30
2018-08-08T22:41:04.679Z,22.50
2018-08-08T22:43:38.913Z,22.30
2018-08-08T22:46:13.232Z,22.50
2018-08-08T22:48:47.630Z,22.40
2018-08-08T22:51:21.784Z,22.30
2018-08-08T22:53:56.508Z,22.20
2018-08-08T22:56:31.226Z,22.30
2018-08-08T22:59:05.517Z,22.50
2018-08-08T23:01:39.952Z,22.70
2018-08-08T23:04:14.199Z,22.70
2018-08-08T23:06:48.504Z,22.60
2018-08-08T23:09:22.876Z,22.70
2018-08-08T23:11:57.210Z,22.40
2018-08-08T23:14:31.563Z,22.30
2018-08-08T23:17:05.932Z,22.60
2018-08-08T23:19:40.184Z,22.40
2018-08-08T23:22:24.516Z,22.60
2018-08-08T23:24:58.975Z,22.50
2018-08-08T23:27:33.227Z,22.60
2018-08-08T23:30:07.585Z,22.60
2018-08-08T23:32:41.907Z,22.60
2018-08-08T23:35:16.239Z,22.30
2018-08-08T23:37:50.623Z,22.30
2018-08-08T23:40:24.908Z,22.10
2018-08-08T23:42:59.089Z,22.20
2018-08-08T23:45:33.469Z,22.30
2018-08-08T23:48:08.298Z,22.00
2018-08-08T23:50:42.496Z,22.00
2018-08-08T23:53:16.764Z,22.10
2018-08-08T23:55:50.983Z,22.10
2018-08-08T23:58:25.292Z,21.90
